createdAt,value
2022-08-14T00:02:31.263Z,3.90
2022-08-14T00:05:00.128Z,4.03
2022-08-14T00:07:30.405Z,3.90
2022-08-14T00:10:50.494Z,4.00
2022-08-14T00:12:56.735Z,3.78
2022-08-14T00:15:37.440Z,4.00
2022-08-14T00:18:30.419Z,3.92
2022-08-14T00:21:11.109Z,3.95
2022-08-14T00:23:41.508Z,4.35
2022-08-14T00:26:21.677Z,4.57
2022-08-14T00:28:51.441Z,3.92
2022-08-14T00:31:19.847Z,3.88
2022-08-14T00:34:37.021Z,4.03
2022-08-14T00:36:51.468Z,4.20
2022-08-14T00:39:21.147Z,4.80
2022-08-14T00:41:49.612Z,3.95
2022-08-14T00:44:27.473Z,3.70
2022-08-14T00:47:03.492Z,4.43
2022-08-14T00:49:38.318Z,4.22
2022-08-14T00:52:17.781Z,4.43
2022-08-14T00:54:57.972Z,4.68
2022-08-14T00:57:35.422Z,4.10
2022-08-14T01:00:07.331Z,4.53
2022-08-14T01:02:55.567Z,4.65
2022-08-14T01:05:27.586Z,4.45
2022-08-14T01:08:50.754Z,4.38
2022-08-14T01:11:00.624Z,4.22
2022-08-14T01:13:42.192Z,4.20
2022-08-14T01:16:14.904Z,4.05
2022-08-14T01:19:02.374Z,3.65
2022-08-14T01:21:38.869Z,3.80
2022-08-14T01:24:24.708Z,4.45
2022-08-14T01:27:00.940Z,4.22
2022-08-14T01:29:58.774Z,3.92
2022-08-14T01:32:26.404Z,4.07
2022-08-14T01:35:18.393Z,4.00
2022-08-14T01:37:56.375Z,4.15
2022-08-14T01:40:36.498Z,4.55
2022-08-14T01:43:18.794Z,4.38
2022-08-14T01:45:57.891Z,4.65
2022-08-14T01:48:37.242Z,3.97
2022-08-14T01:51:19.224Z,4.30
2022-08-14T01:53:55.347Z,3.97
2022-08-14T01:56:37.273Z,4.53
2022-08-14T01:59:14.581Z,4.40
2022-08-14T02:02:19.652Z,4.68
2022-08-14T02:04:57.283Z,4.18
2022-08-14T02:07:34.930Z,4.43
2022-08-14T02:10:16.497Z,3.85
2022-08-14T02:12:54.250Z,8.10
2022-08-14T02:15:26.522Z,6.13
2022-08-14T02:17:54.821Z,6.70
2022-08-14T02:20:23.536Z,5.85
2022-08-14T02:22:54.702Z,4.85
2022-08-14T02:25:25.049Z,4.80
2022-08-14T02:28:25.236Z,4.10
2022-08-14T02:30:47.039Z,4.35
2022-08-14T02:33:15.322Z,4.47
2022-08-14T02:35:49.902Z,4.88
2022-08-14T02:38:30.629Z,4.53
2022-08-14T02:41:08.941Z,4.32
2022-08-14T02:43:46.516Z,4.45
2022-08-14T02:46:20.357Z,4.70
2022-08-14T02:49:04.568Z,4.88
2022-08-14T02:51:36.507Z,4.32
2022-08-14T02:54:07.149Z,4.50
2022-08-14T02:57:16.759Z,4.47
2022-08-14T02:59:33.687Z,4.72
2022-08-14T03:02:04.473Z,4.40
2022-08-14T03:04:33.971Z,4.60
2022-08-14T03:07:07.336Z,4.32
2022-08-14T03:10:25.633Z,4.53
2022-08-14T03:12:32.134Z,4.35
2022-08-14T03:15:03.629Z,4.68
2022-08-14T03:17:40.765Z,4.63
2022-08-14T03:20:23.382Z,4.50
2022-08-14T03:22:52.526Z,4.78
2022-08-14T03:25:23.124Z,4.45
2022-08-14T03:27:58.691Z,4.93
2022-08-14T03:30:39.634Z,4.43
2022-08-14T03:33:12.014Z,4.63
2022-08-14T03:35:59.996Z,5.00
2022-08-14T03:39:14.854Z,5.15
2022-08-14T03:41:23.266Z,4.43
2022-08-14T03:44:00.954Z,4.93
2022-08-14T03:46:49.223Z,5.78
2022-08-14T03:49:28.634Z,4.88
2022-08-14T03:52:01.145Z,5.22
2022-08-14T03:54:30.207Z,5.00
2022-08-14T03:57:02.921Z,4.93
2022-08-14T03:59:34.131Z,4.85
2022-08-14T04:02:31.774Z,5.55
2022-08-14T04:04:53.409Z,5.07
2022-08-14T04:07:22.469Z,5.20
2022-08-14T04:09:50.858Z,5.10
2022-08-14T04:12:26.648Z,5.80
2022-08-14T04:14:56.775Z,5.97
2022-08-14T04:17:26.228Z,5.40
2022-08-14T04:19:55.242Z,6.15
2022-08-14T04:22:25.291Z,5.20
2022-08-14T04:24:53.833Z,4.75
2022-08-14T04:27:23.275Z,4.70
2022-08-14T04:29:51.711Z,4.53
2022-08-14T04:33:00.675Z,5.47
2022-08-14T04:35:11.975Z,5.20
2022-08-14T04:38:07.737Z,4.93
2022-08-14T04:41:10.091Z,5.17
2022-08-14T04:43:40.073Z,4.63
2022-08-14T04:46:11.884Z,5.77
2022-08-14T04:49:02.120Z,5.37
2022-08-14T04:51:37.455Z,5.47
2022-08-14T04:54:16.667Z,5.83
2022-08-14T04:56:45.596Z,5.80
2022-08-14T04:59:14.044Z,5.87
2022-08-14T05:01:48.018Z,5.37
2022-08-14T05:04:21.891Z,6.53
2022-08-14T05:06:53.578Z,5.83
2022-08-14T05:09:23.640Z,6.00
2022-08-14T05:11:53.062Z,5.87
2022-08-14T05:14:45.357Z,5.57
2022-08-14T05:17:10.954Z,6.03
2022-08-14T05:19:44.857Z,6.00
2022-08-14T05:22:30.221Z,5.90
2022-08-14T05:24:58.785Z,6.40
2022-08-14T05:27:31.092Z,5.90
2022-08-14T05:30:00.445Z,6.00
2022-08-14T05:32:28.677Z,6.15
2022-08-14T05:35:00.708Z,5.95
2022-08-14T05:37:30.857Z,6.05
2022-08-14T05:40:02.068Z,5.78
2022-08-14T05:42:31.995Z,6.07
2022-08-14T05:45:04.212Z,5.82
2022-08-14T05:47:39.665Z,6.53
2022-08-14T05:50:18.564Z,6.13
2022-08-14T05:52:50.894Z,5.65
2022-08-14T05:55:22.734Z,6.00
2022-08-14T05:57:57.969Z,6.25
2022-08-14T06:00:36.935Z,6.78
2022-08-14T06:03:10.135Z,6.07
2022-08-14T06:05:40.488Z,6.38
2022-08-14T06:08:31.470Z,6.28
2022-08-14T06:11:08.433Z,6.63
2022-08-14T06:13:45.293Z,6.78
2022-08-14T06:16:17.482Z,6.63
2022-08-14T06:18:48.633Z,6.63
2022-08-14T06:21:22.970Z,6.03
2022-08-14T06:23:51.765Z,6.15
2022-08-14T06:26:20.823Z,6.60
2022-08-14T06:28:52.488Z,6.75
2022-08-14T06:31:21.399Z,6.28
2022-08-14T06:35:02.545Z,6.22
2022-08-14T06:36:40.977Z,6.68
2022-08-14T06:39:10.758Z,5.93
2022-08-14T06:41:58.313Z,6.35
2022-08-14T06:44:53.343Z,5.93
2022-08-14T06:47:21.568Z,6.38
2022-08-14T06:49:56.119Z,5.72
2022-08-14T06:52:27.969Z,6.30
2022-08-14T06:54:58.143Z,6.20
2022-08-14T06:57:36.097Z,5.85
2022-08-14T07:00:08.478Z,6.07
2022-08-14T07:03:08.760Z,6.00
2022-08-14T07:05:55.328Z,6.03
2022-08-14T07:08:31.545Z,5.65
2022-08-14T07:11:03.983Z,6.05
2022-08-14T07:13:32.578Z,5.60
2022-08-14T07:16:05.686Z,6.10
2022-08-14T07:18:37.380Z,5.15
2022-08-14T07:21:10.187Z,5.93
2022-08-14T07:23:44.077Z,5.85
2022-08-14T07:26:13.562Z,5.47
2022-08-14T07:28:43.912Z,5.53
2022-08-14T07:31:13.761Z,6.05
2022-08-14T07:33:50.820Z,5.45
2022-08-14T07:36:27.400Z,5.22
2022-08-14T07:39:00.574Z,5.90
2022-08-14T07:41:31.245Z,5.45
2022-08-14T07:44:22.482Z,5.28
2022-08-14T07:46:51.653Z,4.80
2022-08-14T07:49:20.900Z,4.78
2022-08-14T07:51:52.525Z,5.00
2022-08-14T07:54:23.092Z,4.82
2022-08-14T07:56:59.741Z,4.20
2022-08-14T07:59:40.960Z,4.35
2022-08-14T08:02:19.248Z,3.95
2022-08-14T08:04:54.661Z,4.60
2022-08-14T08:07:29.829Z,3.78
2022-08-14T08:10:31.110Z,3.90
2022-08-14T08:13:17.535Z,3.90
2022-08-14T08:15:49.319Z,4.38
2022-08-14T08:18:27.595Z,4.40
2022-08-14T08:20:59.783Z,3.60
2022-08-14T08:23:31.054Z,3.95
2022-08-14T08:26:10.263Z,3.88
2022-08-14T08:28:38.566Z,3.83
2022-08-14T08:31:13.250Z,4.10
2022-08-14T08:33:43.622Z,4.35
2022-08-14T08:36:18.692Z,4.22
2022-08-14T08:39:18.457Z,3.70
2022-08-14T08:41:45.125Z,3.88
2022-08-14T08:44:31.179Z,4.00
2022-08-14T08:47:05.406Z,3.65
2022-08-14T08:49:59.201Z,3.85
2022-08-14T08:52:31.538Z,3.33
2022-08-14T08:55:00.814Z,3.65
2022-08-14T08:57:37.446Z,3.03
2022-08-14T09:00:24.179Z,2.88
2022-08-14T09:02:57.561Z,2.90
2022-08-14T09:05:27.218Z,3.00
2022-08-14T09:07:56.694Z,2.95
2022-08-14T09:10:27.083Z,3.00
2022-08-14T09:12:57.419Z,3.10
2022-08-14T09:15:26.014Z,2.95
2022-08-14T09:18:05.244Z,3.33
2022-08-14T09:20:33.775Z,3.40
2022-08-14T09:23:06.003Z,2.60
2022-08-14T09:25:58.970Z,3.20
2022-08-14T09:28:25.825Z,2.88
2022-08-14T09:30:57.859Z,2.97
2022-08-14T09:34:04.348Z,3.00
2022-08-14T09:37:00.745Z,3.03
2022-08-14T09:39:55.442Z,3.20
2022-08-14T09:42:49.868Z,3.22
2022-08-14T09:45:24.018Z,3.42
2022-08-14T09:47:54.471Z,3.20
2022-08-14T09:50:27.816Z,3.00
2022-08-14T09:52:59.967Z,3.03
2022-08-14T09:55:36.792Z,3.17
2022-08-14T09:58:19.384Z,3.05
2022-08-14T10:00:53.902Z,2.80
2022-08-14T10:03:33.995Z,3.35
2022-08-14T10:06:11.982Z,2.78
2022-08-14T10:08:50.991Z,2.95
2022-08-14T10:11:24.048Z,2.95
2022-08-14T10:13:55.922Z,3.85
2022-08-14T10:16:33.052Z,3.28
2022-08-14T10:19:12.115Z,3.35
2022-08-14T10:23:10.916Z,3.08
2022-08-14T10:24:40.137Z,2.97
2022-08-14T10:27:18.204Z,3.05
2022-08-14T10:29:51.127Z,3.22
2022-08-14T10:32:29.248Z,3.08
2022-08-14T10:35:13.276Z,3.08
2022-08-14T10:37:48.326Z,3.35
2022-08-14T10:40:38.653Z,3.25
2022-08-14T10:43:23.004Z,2.92
2022-08-14T10:46:21.579Z,3.25
2022-08-14T10:49:04.513Z,2.97
2022-08-14T10:51:36.186Z,3.13
2022-08-14T10:54:16.556Z,3.30
2022-08-14T10:56:58.916Z,3.30
2022-08-14T10:59:36.201Z,3.30
2022-08-14T11:02:22.300Z,3.00
2022-08-14T11:05:13.078Z,3.33
2022-08-14T11:07:57.058Z,3.13
2022-08-14T11:10:43.036Z,3.35
2022-08-14T11:13:17.296Z,3.17
2022-08-14T11:15:46.838Z,3.20
2022-08-14T11:18:20.364Z,2.80
2022-08-14T11:21:02.167Z,3.38
2022-08-14T11:23:38.505Z,2.83
2022-08-14T11:26:10.653Z,3.13
2022-08-14T11:28:47.053Z,3.00
2022-08-14T11:31:22.240Z,2.78
2022-08-14T11:33:57.565Z,2.80
2022-08-14T11:37:02.919Z,2.85
2022-08-14T11:39:34.027Z,2.60
2022-08-14T11:42:57.191Z,3.08
2022-08-14T11:45:00.696Z,3.10
2022-08-14T11:47:35.161Z,3.22
2022-08-14T11:50:34.144Z,3.00
2022-08-14T11:53:11.360Z,2.67
2022-08-14T11:55:42.397Z,3.75
2022-08-14T11:58:15.704Z,3.25
2022-08-14T12:00:55.204Z,3.10
2022-08-14T12:03:37.411Z,3.05
2022-08-14T12:06:29.165Z,3.17
2022-08-14T12:09:08.652Z,3.20
2022-08-14T12:11:47.275Z,3.22
2022-08-14T12:14:30.229Z,3.00
2022-08-14T12:17:02.028Z,3.10
2022-08-14T12:19:33.646Z,2.97
2022-08-14T12:22:03.631Z,3.33
2022-08-14T12:24:40.083Z,3.10
2022-08-14T12:27:09.093Z,3.20
2022-08-14T12:29:38.406Z,3.17
2022-08-14T12:32:08.946Z,3.15
2022-08-14T12:34:45.141Z,3.40
2022-08-14T12:37:13.612Z,2.97
2022-08-14T12:39:43.261Z,3.28
2022-08-14T12:42:27.310Z,3.03
2022-08-14T12:45:04.034Z,2.80
2022-08-14T12:47:32.625Z,3.35
2022-08-14T12:50:02.368Z,3.10
2022-08-14T12:52:42.921Z,2.92
2022-08-14T12:55:32.770Z,3.40
2022-08-14T12:58:34.924Z,3.15
2022-08-14T13:01:16.664Z,3.00
2022-08-14T13:03:48.035Z,3.05
2022-08-14T13:06:24.514Z,3.40
2022-08-14T13:08:53.822Z,3.05
2022-08-14T13:11:41.306Z,3.00
2022-08-14T13:14:17.173Z,2.78
2022-08-14T13:16:50.513Z,3.00
2022-08-14T13:19:20.763Z,2.80
2022-08-14T13:22:05.491Z,2.78
2022-08-14T13:24:40.141Z,2.70
2022-08-14T13:27:11.116Z,2.72
2022-08-14T13:29:46.825Z,2.85
2022-08-14T13:32:16.504Z,2.83
2022-08-14T13:34:48.846Z,2.83
2022-08-14T13:37:18.569Z,3.20
2022-08-14T13:39:57.045Z,2.95
2022-08-14T13:42:30.442Z,2.95
2022-08-14T13:45:01.503Z,3.28
2022-08-14T13:47:33.058Z,2.88
2022-08-14T13:50:04.509Z,2.75
2022-08-14T13:52:53.423Z,2.85
2022-08-14T13:55:28.548Z,2.90
2022-08-14T13:58:03.808Z,3.10
2022-08-14T14:00:53.263Z,2.90
2022-08-14T14:03:55.980Z,2.90
2022-08-14T14:06:35.585Z,3.22
2022-08-14T14:09:04.565Z,3.10
2022-08-14T14:11:33.739Z,3.17
2022-08-14T14:14:04.959Z,2.85
2022-08-14T14:16:33.505Z,3.30
2022-08-14T14:19:09.570Z,3.20
2022-08-14T14:21:40.958Z,3.30
2022-08-14T14:24:14.667Z,2.85
2022-08-14T14:26:47.852Z,3.05
2022-08-14T14:29:23.980Z,3.20
2022-08-14T14:31:55.185Z,3.08
2022-08-14T14:34:30.710Z,2.47
2022-08-14T14:37:02.837Z,3.10
2022-08-14T14:39:37.569Z,2.70
2022-08-14T14:42:31.760Z,2.78
2022-08-14T14:45:07.611Z,2.75
2022-08-14T14:47:37.900Z,2.95
2022-08-14T14:50:08.892Z,3.22
2022-08-14T14:52:39.581Z,3.10
2022-08-14T14:55:12.552Z,3.17
2022-08-14T14:57:52.152Z,2.90
2022-08-14T15:00:25.162Z,2.92
2022-08-14T15:02:59.934Z,2.85
2022-08-14T15:05:28.704Z,3.00
2022-08-14T15:07:57.718Z,2.90
2022-08-14T15:10:31.055Z,3.05
2022-08-14T15:13:03.612Z,3.17
2022-08-14T15:15:36.827Z,3.03
2022-08-14T15:18:36.735Z,2.88
2022-08-14T15:20:58.095Z,2.97
2022-08-14T15:23:43.882Z,3.00
2022-08-14T15:26:24.331Z,2.70
2022-08-14T15:29:05.712Z,3.03
2022-08-14T15:31:37.336Z,3.03
2022-08-14T15:34:45.443Z,2.75
2022-08-14T15:37:04.943Z,2.63
2022-08-14T15:39:35.827Z,2.80
2022-08-14T15:42:09.418Z,2.95
2022-08-14T15:44:58.414Z,2.70
2022-08-14T15:47:32.313Z,2.88
2022-08-14T15:50:04.795Z,3.10
2022-08-14T15:52:37.137Z,2.50
2022-08-14T15:55:13.008Z,2.78
2022-08-14T15:58:01.303Z,3.35
2022-08-14T16:00:49.345Z,3.28
2022-08-14T16:03:27.143Z,2.83
2022-08-14T16:06:05.856Z,3.38
2022-08-14T16:08:40.252Z,3.05
2022-08-14T16:11:10.426Z,3.10
2022-08-14T16:13:43.193Z,3.35
2022-08-14T16:16:50.825Z,3.28
2022-08-14T16:19:09.798Z,3.05
2022-08-14T16:22:02.059Z,3.03
2022-08-14T16:24:35.880Z,3.10
2022-08-14T16:27:39.359Z,2.90
2022-08-14T16:30:25.183Z,3.10
2022-08-14T16:32:57.424Z,2.95
2022-08-14T16:35:42.547Z,2.75
2022-08-14T16:38:45.000Z,2.85
2022-08-14T16:41:29.762Z,2.78
2022-08-14T16:44:02.292Z,2.70
2022-08-14T16:46:34.738Z,3.05
2022-08-14T16:49:06.176Z,3.00
2022-08-14T16:51:39.038Z,2.78
2022-08-14T16:54:33.956Z,2.97
2022-08-14T16:57:15.916Z,2.78
2022-08-14T16:59:52.347Z,3.08
2022-08-14T17:02:36.229Z,2.85
2022-08-14T17:05:19.373Z,3.10
2022-08-14T17:08:31.672Z,2.80
2022-08-14T17:11:10.080Z,2.90
2022-08-14T17:14:00.026Z,2.65
2022-08-14T17:16:37.016Z,2.70
2022-08-14T17:19:13.613Z,3.10
2022-08-14T17:21:46.789Z,2.72
2022-08-14T17:24:56.261Z,3.00
2022-08-14T17:27:08.340Z,2.80
2022-08-14T17:29:44.683Z,3.03
2022-08-14T17:32:29.891Z,3.00
2022-08-14T17:35:16.443Z,2.70
2022-08-14T17:37:55.762Z,2.97
2022-08-14T17:40:31.296Z,3.20
2022-08-14T17:43:02.441Z,3.20
2022-08-14T17:45:46.851Z,2.88
2022-08-14T17:49:10.679Z,2.90
2022-08-14T17:51:23.934Z,2.85
2022-08-14T17:54:02.363Z,3.22
2022-08-14T17:56:38.739Z,3.15
2022-08-14T17:59:07.438Z,3.22
2022-08-14T18:01:40.780Z,3.33
2022-08-14T18:04:32.339Z,2.83
2022-08-14T18:07:09.930Z,2.97
2022-08-14T18:09:57.080Z,3.42
2022-08-14T18:12:32.909Z,3.10
2022-08-14T18:15:16.756Z,3.10
2022-08-14T18:17:53.162Z,3.10
2022-08-14T18:21:40.163Z,3.30
2022-08-14T18:23:14.543Z,2.85
2022-08-14T18:25:50.332Z,3.25
2022-08-14T18:28:51.208Z,2.97
2022-08-14T18:31:42.070Z,3.10
2022-08-14T18:34:30.889Z,2.83
2022-08-14T18:37:16.650Z,3.38
2022-08-14T18:40:02.907Z,3.42
2022-08-14T18:42:45.780Z,3.03
2022-08-14T18:45:18.901Z,2.83
2022-08-14T18:48:33.208Z,3.05
2022-08-14T18:51:15.206Z,3.00
2022-08-14T18:53:59.720Z,3.25
2022-08-14T18:56:57.887Z,3.33
2022-08-14T18:59:36.203Z,3.10
2022-08-14T19:02:44.365Z,3.60
2022-08-14T19:05:14.426Z,3.10
2022-08-14T19:07:43.492Z,3.78
2022-08-14T19:10:37.417Z,3.00
2022-08-14T19:13:12.103Z,3.33
2022-08-14T19:15:44.215Z,3.47
2022-08-14T19:18:29.870Z,3.25
2022-08-14T19:21:00.877Z,3.17
2022-08-14T19:23:43.308Z,3.30
2022-08-14T19:26:35.797Z,3.28
2022-08-14T19:29:37.540Z,3.20
2022-08-14T19:32:40.788Z,3.53
2022-08-14T19:35:55.513Z,3.03
2022-08-14T19:38:53.469Z,2.97
2022-08-14T19:41:29.409Z,3.13
2022-08-14T19:44:10.910Z,3.25
2022-08-14T19:47:00.428Z,3.22
2022-08-14T19:50:07.351Z,3.33
2022-08-14T19:52:29.726Z,3.63
2022-08-14T19:54:59.921Z,3.72
2022-08-14T19:57:31.224Z,2.90
2022-08-14T20:00:28.553Z,3.08
2022-08-14T20:04:00.627Z,3.28
2022-08-14T20:06:46.481Z,3.10
2022-08-14T20:11:06.337Z,3.25
2022-08-14T20:12:05.814Z,3.25
2022-08-14T20:14:53.664Z,3.20
2022-08-14T20:17:24.541Z,3.03
2022-08-14T20:19:52.753Z,2.97
2022-08-14T20:22:38.704Z,3.15
2022-08-14T20:25:18.289Z,3.25
2022-08-14T20:27:59.467Z,3.10
2022-08-14T20:30:34.593Z,3.08
2022-08-14T20:33:07.810Z,3.20
2022-08-14T20:35:44.538Z,2.58
2022-08-14T20:38:28.642Z,3.05
2022-08-14T20:41:05.815Z,3.13
2022-08-14T20:43:56.025Z,3.10
2022-08-14T20:46:31.270Z,3.13
2022-08-14T20:49:02.348Z,3.50
2022-08-14T20:51:47.453Z,2.88
2022-08-14T20:54:34.592Z,3.20
2022-08-14T20:57:10.635Z,3.17
2022-08-14T20:59:43.789Z,3.22
2022-08-14T21:02:46.843Z,2.85
2022-08-14T21:05:33.338Z,3.22
2022-08-14T21:08:08.062Z,2.97
2022-08-14T21:10:44.607Z,3.20
2022-08-14T21:14:09.074Z,2.80
2022-08-14T21:16:33.037Z,2.70
2022-08-14T21:19:00.129Z,2.95
2022-08-14T21:21:40.460Z,3.35
2022-08-14T21:24:39.841Z,3.30
2022-08-14T21:27:12.734Z,3.03
2022-08-14T21:29:53.507Z,3.45
2022-08-14T21:32:33.855Z,2.80
2022-08-14T21:35:08.562Z,3.22
2022-08-14T21:37:44.008Z,3.60
2022-08-14T21:40:39.902Z,3.85
2022-08-14T21:43:05.023Z,3.28
2022-08-14T21:45:35.578Z,3.80
2022-08-14T21:48:09.137Z,3.50
2022-08-14T21:51:02.040Z,3.47
2022-08-14T21:53:32.854Z,3.22
2022-08-14T21:56:03.610Z,3.42
2022-08-14T21:58:52.979Z,3.55
2022-08-14T22:01:21.521Z,3.25
2022-08-14T22:03:56.809Z,3.55
2022-08-14T22:06:29.477Z,3.65
2022-08-14T22:08:58.552Z,3.30
2022-08-14T22:11:27.840Z,3.17
2022-08-14T22:14:02.349Z,3.42
2022-08-14T22:17:02.007Z,3.22
2022-08-14T22:19:47.550Z,3.38
2022-08-14T22:22:26.379Z,3.55
2022-08-14T22:24:59.759Z,4.05
2022-08-14T22:27:32.552Z,3.33
2022-08-14T22:30:02.304Z,3.50
2022-08-14T22:32:56.119Z,3.28
2022-08-14T22:35:23.443Z,3.60
2022-08-14T22:38:35.928Z,3.10
2022-08-14T22:41:07.189Z,3.63
2022-08-14T22:43:35.257Z,3.55
2022-08-14T22:46:14.841Z,3.28
2022-08-14T22:48:45.275Z,3.40
2022-08-14T22:51:15.959Z,3.55
2022-08-14T22:53:51.699Z,3.42
2022-08-14T22:56:29.269Z,3.42
2022-08-14T22:59:00.209Z,3.35
2022-08-14T23:01:57.049Z,3.30
2022-08-14T23:04:34.907Z,3.25
2022-08-14T23:07:22.600Z,3.40
2022-08-14T23:09:57.030Z,3.65
2022-08-14T23:12:29.636Z,3.33
2022-08-14T23:15:00.345Z,3.72
2022-08-14T23:17:39.607Z,3.53
2022-08-14T23:20:18.947Z,4.10
2022-08-14T23:22:51.804Z,3.63
2022-08-14T23:25:57.978Z,3.88
2022-08-14T23:28:34.820Z,3.80
2022-08-14T23:31:15.649Z,3.95
2022-08-14T23:34:06.956Z,3.42
2022-08-14T23:36:54.552Z,3.55
2022-08-14T23:39:30.246Z,3.92
2022-08-14T23:42:04.807Z,3.75
2022-08-14T23:44:37.595Z,4.00
2022-08-14T23:47:11.891Z,3.92
2022-08-14T23:50:04.170Z,4.05
2022-08-14T23:52:56.282Z,3.55
2022-08-14T23:55:32.164Z,4.10
2022-08-14T23:58:01.859Z,4.13
